Skip to Main Content
SEARCH:
Location Air RH Dwp Precip Type Wind Speed Wind Gust Direction Pavement Temperature Date/Time
Hatem Bridge US 40 E/B 78 56 61 None - - No Data Available 102 - 102 8/20/2017 3:07:00 PM
I-270 at I-370 82 49 61 None Calm Calm SW 115 - 122 8/20/2017 3:05:00 PM
I-270 at MD-109 83 51 63 None Calm 6 mph S 115 - 115 8/20/2017 3:05:00 PM
I-495 at American Legion Bridge 84 45 60 None Calm 6 mph NW 113 - 115 8/20/2017 3:05:00 PM
I-68 at MD-219 76 50 56 None 5 mph 12 mph SW 116 - 117 8/20/2017 3:05:00 PM
I-68 at Savage Mt 75 70 65 None Calm 5 mph E 100 - 104 8/20/2017 3:05:00 PM
I-68 at Sideling Hill 80 63 66 None Calm 9 mph S 114 - 118 8/20/2017 3:05:00 PM
I-68 at WV Line 80 42 55 None 4 mph 11 mph S 104 - 110 8/20/2017 3:05:00 PM
I-695 at I-83 82 47 61 None Calm 7 mph NW 109 - 115 8/20/2017 3:05:00 PM
I-70 at Fred-Wash Co. - - - No Data Available - - No Data Available -
I-70 at I-695 82 46 60 None Calm 8 mph S 112 - 99 8/20/2017 3:05:00 PM
I-70 at I-81 83 45 60 None Calm 8 mph W - 8/20/2017 3:05:00 PM
I-70 at MD-27 82 59 66 None Calm 5 mph N 112 - 115 8/20/2017 3:05:00 PM
I-70 at MD-32 81 48 60 None Calm 7 mph SW 109 - 124 8/20/2017 3:05:00 PM
I-83 at MD-137 82 47 61 None Calm 5 mph W 111 - 111 8/20/2017 3:05:00 PM
I-95 at I-695 NE 82 46 59 None Calm Calm W 112 - 117 8/20/2017 3:07:00 PM
I-95 at Patuxent River 83 49 62 None Calm 6 mph N 110 - 114 8/20/2017 3:05:00 PM
I-95 at Tydings Bridge 84 53 65 None Calm Calm NW 107 - 107 8/20/2017 3:05:00 PM
I-95/495 at I-295 93 38 64 None Calm 6 mph W 108 - 117 8/20/2017 3:05:00 PM
I-97 at MD-100 85 42 60 None 4 mph 10 mph NW 112 - 117 8/20/2017 3:05:00 PM
I-97 at MD-32 84 40 57 None 13 mph 15 mph N 111 - 120 8/20/2017 3:05:00 PM
MD 20 at MD 21 82 52 63 None Calm 5 mph N 125 - 125 8/20/2017 3:05:00 PM
MD 231 at Patuxent River 85 56 68 None 5 mph 7 mph E 117 - 120 8/20/2017 3:05:00 PM
MD 260 at Cox Rd 80 57 64 None Calm 5 mph NE 122 - 122 8/20/2017 3:05:00 PM
MD-135 at Salt Dome 78 55 61 None Calm 7 mph SW 118 - 118 8/20/2017 3:05:00 PM
MD-140 at MD-97 79 56 62 None Calm 7 mph NW 114 - 114 8/20/2017 3:05:00 PM
MD-200 EB at Bonifant Rd 80 51 61 None Calm Calm W 120 - 92 8/20/2017 3:05:00 PM
MD-200 WB at Muncaster Mill Rd 82 50 62 None Calm 6 mph SE 114 - 114 8/20/2017 3:05:00 PM
MD-213 at Sassafras River 82 55 65 None Calm 6 mph NW 121 - 121 8/20/2017 3:05:00 PM
MD-24 at Rock St Park 76 76 68 None Calm Calm N 81 - 81 8/20/2017 3:05:00 PM
MD-30 at PA Line 77 59 62 None 5 mph 8 mph W 114 - 114 8/20/2017 3:05:00 PM
MD-301 at MD-305 79 57 63 None 6 mph 9 mph NW 122 - 131 8/20/2017 3:05:00 PM
MD-33 at Knapps Narrows Drawbridge 82 48 61 None 5 mph 9 mph N 133 - 133 8/20/2017 3:05:00 PM
MD-344 at MD-224 84 55 67 None Calm 4 mph SW - 8/20/2017 3:05:00 PM
MD-4 at Patuxent River 83 63 70 None - - No Data Available 112 - 112 8/20/2017 3:05:00 PM
MD-404 at Choptank River 82 52 63 None 4 mph 11 mph W 116 - 118 8/20/2017 3:05:00 PM
MD-43 at MD-150 84 46 62 None Calm 8 mph N 116 - 120 8/20/2017 3:05:00 PM
MD-51 at Oldtown Salt Dome 83 51 63 None Calm Calm SE 125 - 125 8/20/2017 3:05:00 PM
MD-64 at MD-418 - - - No Data Available - - No Data Available -
US-1 at Baltimore / Harford Co. Line 79 63 65 None Calm 6 mph NW 113 - 113 8/20/2017 3:05:00 PM
US-1 at Conowingo Dam 86 58 70 None Calm 5 mph SW 116 - 116 8/20/2017 3:05:00 PM
US-13 at US-113 85 57 68 None 5 mph 10 mph N 130 - 135 8/20/2017 3:05:00 PM
US-13 at US-50 - - - No Data Available - - No Data Available -
US-15 at MD-140 82 49 61 None Calm 5 mph E 117 - 119 8/20/2017 3:05:00 PM
US-301 at MD-5 85 45 62 None Calm 7 mph N 115 - 121 8/20/2017 3:05:00 PM
US-301 at Potomac 89 58 73 None 4 mph 7 mph NW 111 - 113 8/20/2017 3:05:00 PM
US-301 on HWN Bridge 81 59 66 None 4 mph 5 mph NW 107 - 107 8/20/2017 3:09:00 PM
US-340 at MD-180 80 56 63 None Calm Calm NW 118 - 122 8/20/2017 3:05:00 PM
US-50 at Choptank 83 47 61 None 7 mph 11 mph NW 111 - 113 8/20/2017 3:05:00 PM
US-50 at I-95 86 43 61 None Calm 8 mph N 110 - 119 8/20/2017 3:05:00 PM
US-50 at MD-2 83 45 60 None Calm 8 mph NW 117 - 93 8/20/2017 3:05:00 PM
US-50 at MD-331 82 52 63 None 7 mph 10 mph NW 115 - 118 8/20/2017 3:05:00 PM
US-50 at OC Drawbridge 79 74 70 None 8 mph 12 mph E 118 - 118 8/20/2017 3:05:00 PM
US-50 at Table Rock Rd 78 60 63 None Calm 7 mph NW 127 - 127 8/20/2017 3:05:00 PM
US-50 Kent Narrow Bridge 82 53 64 None Calm 6 mph NW 109 - 113 8/20/2017 3:05:00 PM
WPL Pier 31 - - - No Data Available - - No Data Available -
Location Air RH Dwp Precip Type Wind Speed Wind Gust Direction Pavement Temperature Date/Time